sensor_id;sensor_type;location;lat;lon;timestamp;pressure;altitude;pressure_sealevel;temperature
22269;BMP280;11303;50.772;19.670;2023-02-11T00:00:40;100454.97;;;1.45
22269;BMP280;11303;50.772;19.670;2023-02-11T00:02:42;100441.41;;;1.43
22269;BMP280;11303;50.772;19.670;2023-02-11T00:04:47;100436.19;;;1.43
22269;BMP280;11303;50.772;19.670;2023-02-11T00:06:49;100438.31;;;1.41
22269;BMP280;11303;50.772;19.670;2023-02-11T00:08:51;100421.66;;;1.37
22269;BMP280;11303;50.772;19.670;2023-02-11T00:10:53;100433.47;;;1.35
22269;BMP280;11303;50.772;19.670;2023-02-11T00:12:55;100428.44;;;1.25
22269;BMP280;11303;50.772;19.670;2023-02-11T00:14:57;100429.47;;;1.10
22269;BMP280;11303;50.772;19.670;2023-02-11T00:16:58;100433.16;;;0.91
22269;BMP280;11303;50.772;19.670;2023-02-11T00:19:01;100443.09;;;0.70
22269;BMP280;11303;50.772;19.670;2023-02-11T00:21:12;100436.03;;;0.52
22269;BMP280;11303;50.772;19.670;2023-02-11T00:23:14;100428.19;;;0.34
22269;BMP280;11303;50.772;19.670;2023-02-11T00:25:15;100431.50;;;0.21
22269;BMP280;11303;50.772;19.670;2023-02-11T00:27:17;100427.47;;;0.10
22269;BMP280;11303;50.772;19.670;2023-02-11T00:29:19;100426.53;;;0.00
22269;BMP280;11303;50.772;19.670;2023-02-11T00:31:21;100419.81;;;-0.06
22269;BMP280;11303;50.772;19.670;2023-02-11T00:33:23;100418.31;;;-0.12
22269;BMP280;11303;50.772;19.670;2023-02-11T00:35:25;100421.19;;;-0.13
22269;BMP280;11303;50.772;19.670;2023-02-11T00:37:26;100411.81;;;-0.14
22269;BMP280;11303;50.772;19.670;2023-02-11T00:39:28;100413.38;;;-0.13
22269;BMP280;11303;50.772;19.670;2023-02-11T00:41:30;100403.72;;;-0.13
22269;BMP280;11303;50.772;19.670;2023-02-11T00:43:31;100394.63;;;-0.15
22269;BMP280;11303;50.772;19.670;2023-02-11T00:45:33;100391.25;;;-0.16
22269;BMP280;11303;50.772;19.670;2023-02-11T00:47:35;100379.97;;;-0.11
22269;BMP280;11303;50.772;19.670;2023-02-11T00:49:37;100375.03;;;-0.13
22269;BMP280;11303;50.772;19.670;2023-02-11T00:51:40;100370.59;;;-0.12
22269;BMP280;11303;50.772;19.670;2023-02-11T00:53:42;100350.31;;;-0.15
22269;BMP280;11303;50.772;19.670;2023-02-11T00:55:43;100345.91;;;-0.20
22269;BMP280;11303;50.772;19.670;2023-02-11T00:57:45;100343.63;;;-0.26
22269;BMP280;11303;50.772;19.670;2023-02-11T00:59:47;100342.41;;;-0.34
22269;BMP280;11303;50.772;19.670;2023-02-11T01:01:48;100342.25;;;-0.42
22269;BMP280;11303;50.772;19.670;2023-02-11T01:03:50;100350.38;;;-0.49
22269;BMP280;11303;50.772;19.670;2023-02-11T01:05:52;100349.19;;;-0.61
22269;BMP280;11303;50.772;19.670;2023-02-11T01:07:54;100351.63;;;-0.70
22269;BMP280;11303;50.772;19.670;2023-02-11T01:09:56;100358.22;;;-0.77
22269;BMP280;11303;50.772;19.670;2023-02-11T01:11:57;100349.16;;;-0.85
22269;BMP280;11303;50.772;19.670;2023-02-11T01:13:59;100353.94;;;-0.92
22269;BMP280;11303;50.772;19.670;2023-02-11T01:16:00;100344.59;;;-0.98
22269;BMP280;11303;50.772;19.670;2023-02-11T01:18:03;100349.03;;;-0.98
22269;BMP280;11303;50.772;19.670;2023-02-11T01:20:08;100337.06;;;-0.99
22269;BMP280;11303;50.772;19.670;2023-02-11T01:22:09;100337.84;;;-0.99
22269;BMP280;11303;50.772;19.670;2023-02-11T01:24:11;100325.59;;;-0.98
22269;BMP280;11303;50.772;19.670;2023-02-11T01:26:12;100328.19;;;-0.98
22269;BMP280;11303;50.772;19.670;2023-02-11T01:28:22;100335.19;;;-0.94
22269;BMP280;11303;50.772;19.670;2023-02-11T01:30:24;100342.44;;;-0.91
22269;BMP280;11303;50.772;19.670;2023-02-11T01:32:26;100338.81;;;-0.90
22269;BMP280;11303;50.772;19.670;2023-02-11T01:34:27;100322.13;;;-0.89
22269;BMP280;11303;50.772;19.670;2023-02-11T01:36:29;100317.91;;;-0.85
22269;BMP280;11303;50.772;19.670;2023-02-11T01:38:31;100336.91;;;-0.79
22269;BMP280;11303;50.772;19.670;2023-02-11T01:40:33;100327.75;;;-0.77
22269;BMP280;11303;50.772;19.670;2023-02-11T01:42:35;100320.16;;;-0.73
22269;BMP280;11303;50.772;19.670;2023-02-11T01:44:38;100325.31;;;-0.68
22269;BMP280;11303;50.772;19.670;2023-02-11T01:46:40;100327.09;;;-0.64
22269;BMP280;11303;50.772;19.670;2023-02-11T01:48:55;100319.69;;;-0.57
22269;BMP280;11303;50.772;19.670;2023-02-11T01:51:02;100310.03;;;-0.51
22269;BMP280;11303;50.772;19.670;2023-02-11T01:53:05;100310.22;;;-0.48
22269;BMP280;11303;50.772;19.670;2023-02-11T01:55:25;100309.91;;;-0.41
22269;BMP280;11303;50.772;19.670;2023-02-11T01:57:48;100294.22;;;-0.36
22269;BMP280;11303;50.772;19.670;2023-02-11T02:01:59;100279.25;;;-0.26
22269;BMP280;11303;50.772;19.670;2023-02-11T02:04:03;100282.56;;;-0.20
22269;BMP280;11303;50.772;19.670;2023-02-11T02:06:11;100262.97;;;-0.18
22269;BMP280;11303;50.772;19.670;2023-02-11T02:08:38;100271.00;;;-0.14
22269;BMP280;11303;50.772;19.670;2023-02-11T02:10:43;100265.53;;;-0.13
22269;BMP280;11303;50.772;19.670;2023-02-11T02:12:46;100267.84;;;-0.11
22269;BMP280;11303;50.772;19.670;2023-02-11T02:14:47;100243.59;;;-0.12
22269;BMP280;11303;50.772;19.670;2023-02-11T02:16:49;100244.38;;;-0.11
22269;BMP280;11303;50.772;19.670;2023-02-11T02:21:28;100254.31;;;-0.13
22269;BMP280;11303;50.772;19.670;2023-02-11T02:35:57;100224.88;;;-0.14
22269;BMP280;11303;50.772;19.670;2023-02-11T02:38:13;100207.38;;;-0.13
22269;BMP280;11303;50.772;19.670;2023-02-11T02:40:22;100194.31;;;-0.13
22269;BMP280;11303;50.772;19.670;2023-02-11T02:42:25;100196.19;;;-0.14
22269;BMP280;11303;50.772;19.670;2023-02-11T02:44:27;100189.91;;;-0.13
22269;BMP280;11303;50.772;19.670;2023-02-11T02:46:31;100178.69;;;-0.13
22269;BMP280;11303;50.772;19.670;2023-02-11T02:48:33;100169.81;;;-0.12
22269;BMP280;11303;50.772;19.670;2023-02-11T02:50:36;100179.19;;;-0.11
22269;BMP280;11303;50.772;19.670;2023-02-11T02:56:58;100174.47;;;-0.09
22269;BMP280;11303;50.772;19.670;2023-02-11T03:01:52;100191.09;;;-0.05
22269;BMP280;11303;50.772;19.670;2023-02-11T03:04:33;100191.88;;;-0.05
22269;BMP280;11303;50.772;19.670;2023-02-11T03:07:42;100184.06;;;-0.05
22269;BMP280;11303;50.772;19.670;2023-02-11T03:09:34;100175.94;;;-0.03
22269;BMP280;11303;50.772;19.670;2023-02-11T03:11:36;100166.56;;;-0.04
22269;BMP280;11303;50.772;19.670;2023-02-11T03:13:38;100158.44;;;-0.03
22269;BMP280;11303;50.772;19.670;2023-02-11T03:15:42;100151.91;;;0.00
22269;BMP280;11303;50.772;19.670;2023-02-11T03:17:47;100148.97;;;0.01
22269;BMP280;11303;50.772;19.670;2023-02-11T03:19:49;100148.69;;;0.03
22269;BMP280;11303;50.772;19.670;2023-02-11T03:21:52;100132.59;;;0.01
22269;BMP280;11303;50.772;19.670;2023-02-11T03:23:55;100125.59;;;-0.04
22269;BMP280;11303;50.772;19.670;2023-02-11T03:28:08;100121.19;;;-0.03
22269;BMP280;11303;50.772;19.670;2023-02-11T03:30:21;100118.66;;;-0.08
22269;BMP280;11303;50.772;19.670;2023-02-11T03:32:30;100122.31;;;-0.09
22269;BMP280;11303;50.772;19.670;2023-02-11T03:34:52;100120.75;;;-0.10
22269;BMP280;11303;50.772;19.670;2023-02-11T03:36:59;100114.78;;;-0.11
22269;BMP280;11303;50.772;19.670;2023-02-11T03:39:03;100109.06;;;-0.13
22269;BMP280;11303;50.772;19.670;2023-02-11T03:41:06;100103.84;;;-0.13
22269;BMP280;11303;50.772;19.670;2023-02-11T03:43:14;100082.78;;;-0.16
22269;BMP280;11303;50.772;19.670;2023-02-11T03:45:21;100080.16;;;-0.16
22269;BMP280;11303;50.772;19.670;2023-02-11T03:47:25;100069.75;;;-0.16
22269;BMP280;11303;50.772;19.670;2023-02-11T03:49:29;100059.31;;;-0.16
22269;BMP280;11303;50.772;19.670;2023-02-11T03:51:33;100055.16;;;-0.17
22269;BMP280;11303;50.772;19.670;2023-02-11T03:53:35;100050.44;;;-0.15
22269;BMP280;11303;50.772;19.670;2023-02-11T03:55:38;100053.53;;;-0.13
22269;BMP280;11303;50.772;19.670;2023-02-11T03:57:40;100050.34;;;-0.10
22269;BMP280;11303;50.772;19.670;2023-02-11T03:59:56;100062.53;;;-0.06
22269;BMP280;11303;50.772;19.670;2023-02-11T04:01:58;100058.59;;;-0.03
22269;BMP280;11303;50.772;19.670;2023-02-11T04:04:00;100070.00;;;0.01
22269;BMP280;11303;50.772;19.670;2023-02-11T04:06:02;100078.78;;;0.05
22269;BMP280;11303;50.772;19.670;2023-02-11T04:08:04;100075.59;;;0.08
22269;BMP280;11303;50.772;19.670;2023-02-11T04:10:06;100070.09;;;0.10
22269;BMP280;11303;50.772;19.670;2023-02-11T04:12:08;100075.03;;;0.11
22269;BMP280;11303;50.772;19.670;2023-02-11T04:14:09;100072.91;;;0.13
22269;BMP280;11303;50.772;19.670;2023-02-11T04:16:11;100070.78;;;0.15
22269;BMP280;11303;50.772;19.670;2023-02-11T04:18:12;100078.31;;;0.17
22269;BMP280;11303;50.772;19.670;2023-02-11T04:20:14;100071.28;;;0.17
22269;BMP280;11303;50.772;19.670;2023-02-11T04:22:16;100074.84;;;0.21
22269;BMP280;11303;50.772;19.670;2023-02-11T04:24:17;100071.94;;;0.23
22269;BMP280;11303;50.772;19.670;2023-02-11T04:26:20;100071.19;;;0.22
22269;BMP280;11303;50.772;19.670;2023-02-11T04:28:21;100073.22;;;0.25
22269;BMP280;11303;50.772;19.670;2023-02-11T04:30:23;100073.97;;;0.26
22269;BMP280;11303;50.772;19.670;2023-02-11T04:32:24;100075.53;;;0.27
22269;BMP280;11303;50.772;19.670;2023-02-11T04:34:26;100067.72;;;0.27
22269;BMP280;11303;50.772;19.670;2023-02-11T04:36:28;100076.28;;;0.27
22269;BMP280;11303;50.772;19.670;2023-02-11T04:38:29;100076.28;;;0.27
22269;BMP280;11303;50.772;19.670;2023-02-11T04:40:31;100097.94;;;0.28
22269;BMP280;11303;50.772;19.670;2023-02-11T04:42:32;100086.44;;;0.29
22269;BMP280;11303;50.772;19.670;2023-02-11T04:44:34;100087.22;;;0.29
22269;BMP280;11303;50.772;19.670;2023-02-11T04:46:35;100087.22;;;0.29
22269;BMP280;11303;50.772;19.670;2023-02-11T04:48:37;100078.78;;;0.32
22269;BMP280;11303;50.772;19.670;2023-02-11T04:50:39;100066.53;;;0.33
22269;BMP280;11303;50.772;19.670;2023-02-11T04:52:41;100068.06;;;0.34
22269;BMP280;11303;50.772;19.670;2023-02-11T04:54:43;100034.44;;;0.32
22269;BMP280;11303;50.772;19.670;2023-02-11T04:56:44;100024.00;;;0.32
22269;BMP280;11303;50.772;19.670;2023-02-11T04:58:46;99995.13;;;0.29
22269;BMP280;11303;50.772;19.670;2023-02-11T05:00:48;99984.97;;;0.27
22269;BMP280;11303;50.772;19.670;2023-02-11T05:02:49;99988.66;;;0.26
22269;BMP280;11303;50.772;19.670;2023-02-11T05:04:51;99932.34;;;0.25
22269;BMP280;11303;50.772;19.670;2023-02-11T05:06:52;99936.47;;;0.26
22269;BMP280;11303;50.772;19.670;2023-02-11T05:08:54;99957.66;;;0.25
22269;BMP280;11303;50.772;19.670;2023-02-11T05:10:55;99947.50;;;0.23
22269;BMP280;11303;50.772;19.670;2023-02-11T05:12:57;99945.97;;;0.22
22269;BMP280;11303;50.772;19.670;2023-02-11T05:14:58;99947.59;;;0.18
22269;BMP280;11303;50.772;19.670;2023-02-11T05:17:00;99955.03;;;0.11
22269;BMP280;11303;50.772;19.670;2023-02-11T05:19:02;99946.72;;;0.09
22269;BMP280;11303;50.772;19.670;2023-02-11T05:21:12;99947.31;;;0.06
22269;BMP280;11303;50.772;19.670;2023-02-11T05:23:14;99938.53;;;0.02
22269;BMP280;11303;50.772;19.670;2023-02-11T05:25:16;99952.13;;;-0.01
22269;BMP280;11303;50.772;19.670;2023-02-11T05:27:18;99935.81;;;-0.07
22269;BMP280;11303;50.772;19.670;2023-02-11T05:29:19;99944.03;;;-0.13
22269;BMP280;11303;50.772;19.670;2023-02-11T05:31:21;99950.88;;;-0.17
22269;BMP280;11303;50.772;19.670;2023-02-11T05:33:23;99952.53;;;-0.21
22269;BMP280;11303;50.772;19.670;2023-02-11T05:35:24;99942.19;;;-0.26
22269;BMP280;11303;50.772;19.670;2023-02-11T05:37:26;99952.13;;;-0.28
22269;BMP280;11303;50.772;19.670;2023-02-11T05:39:27;99964.69;;;-0.30
22269;BMP280;11303;50.772;19.670;2023-02-11T05:41:29;99954.31;;;-0.35
22269;BMP280;11303;50.772;19.670;2023-02-11T05:43:31;99966.84;;;-0.37
22269;BMP280;11303;50.772;19.670;2023-02-11T05:45:32;99954.38;;;-0.40
22269;BMP280;11303;50.772;19.670;2023-02-11T05:47:34;99964.81;;;-0.40
22269;BMP280;11303;50.772;19.670;2023-02-11T05:49:35;99961.72;;;-0.42
22269;BMP280;11303;50.772;19.670;2023-02-11T05:51:37;99974.25;;;-0.44
22269;BMP280;11303;50.772;19.670;2023-02-11T05:53:38;99961.03;;;-0.48
22269;BMP280;11303;50.772;19.670;2023-02-11T05:55:40;99966.53;;;-0.49
22269;BMP280;11303;50.772;19.670;2023-02-11T05:57:42;99960.34;;;-0.53
22269;BMP280;11303;50.772;19.670;2023-02-11T05:59:43;99952.81;;;-0.55
22269;BMP280;11303;50.772;19.670;2023-02-11T06:01:45;99957.25;;;-0.55
22269;BMP280;11303;50.772;19.670;2023-02-11T06:03:46;99947.88;;;-0.56
22269;BMP280;11303;50.772;19.670;2023-02-11T06:05:50;99945.50;;;-0.53
22269;BMP280;11303;50.772;19.670;2023-02-11T06:07:52;99937.19;;;-0.55
22269;BMP280;11303;50.772;19.670;2023-02-11T06:09:53;99943.47;;;-0.56
22269;BMP280;11303;50.772;19.670;2023-02-11T06:11:55;99950.50;;;-0.56
22269;BMP280;11303;50.772;19.670;2023-02-11T06:13:56;99941.53;;;-0.50
22269;BMP280;11303;50.772;19.670;2023-02-11T06:15:59;99952.44;;;-0.48
22269;BMP280;11303;50.772;19.670;2023-02-11T06:18:02;99954.78;;;-0.47
22269;BMP280;11303;50.772;19.670;2023-02-11T06:20:06;99959.13;;;-0.42
22269;BMP280;11303;50.772;19.670;2023-02-11T06:22:09;99969.72;;;-0.39
22269;BMP280;11303;50.772;19.670;2023-02-11T06:24:11;99966.25;;;-0.34
22269;BMP280;11303;50.772;19.670;2023-02-11T06:26:18;99961.50;;;-0.27
22269;BMP280;11303;50.772;19.670;2023-02-11T06:28:19;99974.44;;;-0.22
22269;BMP280;11303;50.772;19.670;2023-02-11T06:30:21;99980.34;;;-0.17
22269;BMP280;11303;50.772;19.670;2023-02-11T06:32:23;99992.81;;;-0.14
22269;BMP280;11303;50.772;19.670;2023-02-11T06:34:44;99984.13;;;-0.09
22269;BMP280;11303;50.772;19.670;2023-02-11T06:36:45;99981.13;;;-0.03
22269;BMP280;11303;50.772;19.670;2023-02-11T06:38:48;99976.47;;;0.08
22269;BMP280;11303;50.772;19.670;2023-02-11T06:40:50;99970.31;;;0.18
22269;BMP280;11303;50.772;19.670;2023-02-11T06:42:51;99970.59;;;0.30
22269;BMP280;11303;50.772;19.670;2023-02-11T06:44:53;99964.66;;;0.38
22269;BMP280;11303;50.772;19.670;2023-02-11T06:46:55;99966.09;;;0.44
22269;BMP280;11303;50.772;19.670;2023-02-11T06:48:56;99965.13;;;0.53
22269;BMP280;11303;50.772;19.670;2023-02-11T06:51:03;99967.34;;;0.60
22269;BMP280;11303;50.772;19.670;2023-02-11T06:53:05;99957.66;;;0.60
22269;BMP280;11303;50.772;19.670;2023-02-11T06:55:07;99958.72;;;0.59
22269;BMP280;11303;50.772;19.670;2023-02-11T06:57:08;99949.94;;;0.55
22269;BMP280;11303;50.772;19.670;2023-02-11T06:59:19;99958.84;;;0.54
22269;BMP280;11303;50.772;19.670;2023-02-11T07:01:21;99955.75;;;0.52
22269;BMP280;11303;50.772;19.670;2023-02-11T07:03:24;99946.66;;;0.50
22269;BMP280;11303;50.772;19.670;2023-02-11T07:05:25;99947.63;;;0.54
22269;BMP280;11303;50.772;19.670;2023-02-11T07:07:27;99941.25;;;0.60
22269;BMP280;11303;50.772;19.670;2023-02-11T07:09:28;99948.50;;;0.63
22269;BMP280;11303;50.772;19.670;2023-02-11T07:11:30;99939.28;;;0.65
22269;BMP280;11303;50.772;19.670;2023-02-11T07:13:32;99943.78;;;0.73
22269;BMP280;11303;50.772;19.670;2023-02-11T07:15:35;99936.81;;;0.82
22269;BMP280;11303;50.772;19.670;2023-02-11T07:17:37;99930.28;;;0.93
22269;BMP280;11303;50.772;19.670;2023-02-11T07:19:38;99920.78;;;0.97
22269;BMP280;11303;50.772;19.670;2023-02-11T07:21:40;99921.16;;;1.04
22269;BMP280;11303;50.772;19.670;2023-02-11T07:23:42;99924.41;;;1.32
22269;BMP280;11303;50.772;19.670;2023-02-11T07:25:43;99905.81;;;1.72
22269;BMP280;11303;50.772;19.670;2023-02-11T07:27:45;99914.97;;;2.09
22269;BMP280;11303;50.772;19.670;2023-02-11T07:29:47;99909.31;;;2.15
22269;BMP280;11303;50.772;19.670;2023-02-11T07:31:49;99905.00;;;2.19
22269;BMP280;11303;50.772;19.670;2023-02-11T07:33:52;99909.47;;;2.19
22269;BMP280;11303;50.772;19.670;2023-02-11T07:35:54;99893.00;;;2.18
22269;BMP280;11303;50.772;19.670;2023-02-11T07:37:56;99895.13;;;2.16
22269;BMP280;11303;50.772;19.670;2023-02-11T07:39:57;99898.41;;;2.22
22269;BMP280;11303;50.772;19.670;2023-02-11T07:41:59;99888.25;;;2.20
22269;BMP280;11303;50.772;19.670;2023-02-11T07:44:02;99893.31;;;2.25
22269;BMP280;11303;50.772;19.670;2023-02-11T07:46:05;99891.31;;;2.31
22269;BMP280;11303;50.772;19.670;2023-02-11T07:48:07;99895.63;;;2.36
22269;BMP280;11303;50.772;19.670;2023-02-11T07:50:09;99898.06;;;2.41
22269;BMP280;11303;50.772;19.670;2023-02-11T07:52:10;99890.38;;;2.44
22269;BMP280;11303;50.772;19.670;2023-02-11T07:54:12;99885.16;;;2.44
22269;BMP280;11303;50.772;19.670;2023-02-11T07:56:15;99899.16;;;2.48
22269;BMP280;11303;50.772;19.670;2023-02-11T07:58:16;99893.63;;;2.50
22269;BMP280;11303;50.772;19.670;2023-02-11T08:00:18;99886.72;;;2.54
22269;BMP280;11303;50.772;19.670;2023-02-11T08:02:21;99870.66;;;2.64
22269;BMP280;11303;50.772;19.670;2023-02-11T08:04:23;99878.94;;;2.66
22269;BMP280;11303;50.772;19.670;2023-02-11T08:06:27;99875.09;;;2.72
22269;BMP280;11303;50.772;19.670;2023-02-11T08:08:29;99877.72;;;2.80
22269;BMP280;11303;50.772;19.670;2023-02-11T08:10:31;99882.00;;;2.93
22269;BMP280;11303;50.772;19.670;2023-02-11T08:12:32;99873.66;;;3.08
22269;BMP280;11303;50.772;19.670;2023-02-11T08:14:35;99866.84;;;3.16
22269;BMP280;11303;50.772;19.670;2023-02-11T08:16:37;99868.63;;;3.24
22269;BMP280;11303;50.772;19.670;2023-02-11T08:18:39;99878.34;;;3.32
22269;BMP280;11303;50.772;19.670;2023-02-11T08:20:41;99879.59;;;3.26
22269;BMP280;11303;50.772;19.670;2023-02-11T08:22:42;99882.19;;;3.34
22269;BMP280;11303;50.772;19.670;2023-02-11T08:24:44;99871.84;;;3.38
22269;BMP280;11303;50.772;19.670;2023-02-11T08:26:46;99873.38;;;3.39
22269;BMP280;11303;50.772;19.670;2023-02-11T08:28:49;99864.63;;;3.64
22269;BMP280;11303;50.772;19.670;2023-02-11T08:30:50;99868.06;;;3.85
22269;BMP280;11303;50.772;19.670;2023-02-11T08:32:53;99865.44;;;4.05
22269;BMP280;11303;50.772;19.670;2023-02-11T08:34:54;99864.03;;;4.08
22269;BMP280;11303;50.772;19.670;2023-02-11T08:36:56;99860.19;;;4.05
22269;BMP280;11303;50.772;19.670;2023-02-11T08:38:59;99866.75;;;4.11
22269;BMP280;11303;50.772;19.670;2023-02-11T08:41:18;99854.03;;;4.22
22269;BMP280;11303;50.772;19.670;2023-02-11T08:43:20;99858.97;;;4.23
22269;BMP280;11303;50.772;19.670;2023-02-11T08:45:21;99864.78;;;4.29
22269;BMP280;11303;50.772;19.670;2023-02-11T08:47:23;99867.59;;;4.24
22269;BMP280;11303;50.772;19.670;2023-02-11T08:49:25;99857.22;;;4.27
22269;BMP280;11303;50.772;19.670;2023-02-11T08:51:28;99864.25;;;4.15
22269;BMP280;11303;50.772;19.670;2023-02-11T08:53:34;99866.06;;;4.23
22269;BMP280;11303;50.772;19.670;2023-02-11T08:55:35;99861.19;;;4.13
22269;BMP280;11303;50.772;19.670;2023-02-11T08:57:37;99872.06;;;4.03
22269;BMP280;11303;50.772;19.670;2023-02-11T08:59:38;99858.25;;;4.14
22269;BMP280;11303;50.772;19.670;2023-02-11T09:01:40;99864.81;;;4.08
22269;BMP280;11303;50.772;19.670;2023-02-11T09:03:42;99866.97;;;4.06
22269;BMP280;11303;50.772;19.670;2023-02-11T09:05:45;99870.03;;;3.88
22269;BMP280;11303;50.772;19.670;2023-02-11T09:07:47;99868.81;;;3.85
22269;BMP280;11303;50.772;19.670;2023-02-11T09:09:49;99874.84;;;3.86
22269;BMP280;11303;50.772;19.670;2023-02-11T09:11:50;99880.53;;;3.88
22269;BMP280;11303;50.772;19.670;2023-02-11T09:13:52;99867.97;;;3.93
22269;BMP280;11303;50.772;19.670;2023-02-11T09:15:55;99876.69;;;4.06
22269;BMP280;11303;50.772;19.670;2023-02-11T09:17:57;99886.22;;;4.10
22269;BMP280;11303;50.772;19.670;2023-02-11T09:19:58;99886.59;;;4.21
22269;BMP280;11303;50.772;19.670;2023-02-11T09:22:00;99873.53;;;4.33
22269;BMP280;11303;50.772;19.670;2023-02-11T09:24:02;99862.13;;;4.49
22269;BMP280;11303;50.772;19.670;2023-02-11T09:26:08;99846.00;;;4.95
22269;BMP280;11303;50.772;19.670;2023-02-11T09:28:10;99851.59;;;5.06
22269;BMP280;11303;50.772;19.670;2023-02-11T09:30:12;99854.22;;;4.94
22269;BMP280;11303;50.772;19.670;2023-02-11T09:32:14;99872.94;;;4.92
22269;BMP280;11303;50.772;19.670;2023-02-11T09:34:15;99854.28;;;4.73
22269;BMP280;11303;50.772;19.670;2023-02-11T09:36:20;99864.00;;;4.61
22269;BMP280;11303;50.772;19.670;2023-02-11T09:38:22;99874.09;;;4.59
22269;BMP280;11303;50.772;19.670;2023-02-11T09:40:23;99860.94;;;4.59
22269;BMP280;11303;50.772;19.670;2023-02-11T09:42:39;99854.66;;;4.51
22269;BMP280;11303;50.772;19.670;2023-02-11T09:44:43;99857.28;;;4.51
22269;BMP280;11303;50.772;19.670;2023-02-11T09:46:53;99859.06;;;4.59
22269;BMP280;11303;50.772;19.670;2023-02-11T09:48:56;99854.47;;;4.56
22269;BMP280;11303;50.772;19.670;2023-02-11T09:51:02;99850.88;;;4.61
22269;BMP280;11303;50.772;19.670;2023-02-11T09:53:15;99854.94;;;4.70
22269;BMP280;11303;50.772;19.670;2023-02-11T09:55:24;99837.88;;;4.64
22269;BMP280;11303;50.772;19.670;2023-02-11T09:57:35;99823.84;;;4.72
22269;BMP280;11303;50.772;19.670;2023-02-11T09:59:37;99840.00;;;4.95
22269;BMP280;11303;50.772;19.670;2023-02-11T10:02:04;99821.34;;;5.36
22269;BMP280;11303;50.772;19.670;2023-02-11T10:13:39;99768.41;;;5.37
22269;BMP280;11303;50.772;19.670;2023-02-11T10:15:52;99760.19;;;5.39
22269;BMP280;11303;50.772;19.670;2023-02-11T10:20:42;99733.59;;;5.68
22269;BMP280;11303;50.772;19.670;2023-02-11T10:24:55;99726.66;;;6.34
22269;BMP280;11303;50.772;19.670;2023-02-11T10:27:16;99722.16;;;6.35
22269;BMP280;11303;50.772;19.670;2023-02-11T10:29:39;99719.00;;;6.29
22269;BMP280;11303;50.772;19.670;2023-02-11T10:31:43;99724.09;;;6.22
22269;BMP280;11303;50.772;19.670;2023-02-11T10:34:02;99721.50;;;6.10
22269;BMP280;11303;50.772;19.670;2023-02-11T10:36:05;99713.63;;;5.95
22269;BMP280;11303;50.772;19.670;2023-02-11T10:38:07;99721.66;;;5.86
22269;BMP280;11303;50.772;19.670;2023-02-11T10:40:21;99709.31;;;5.75
22269;BMP280;11303;50.772;19.670;2023-02-11T10:42:23;99720.03;;;5.54
22269;BMP280;11303;50.772;19.670;2023-02-11T10:45:02;99723.38;;;5.39
22269;BMP280;11303;50.772;19.670;2023-02-11T10:47:14;99714.44;;;5.16
22269;BMP280;11303;50.772;19.670;2023-02-11T10:49:38;99722.66;;;5.14
22269;BMP280;11303;50.772;19.670;2023-02-11T10:51:40;99720.59;;;5.08
22269;BMP280;11303;50.772;19.670;2023-02-11T10:53:42;99730.59;;;5.02
22269;BMP280;11303;50.772;19.670;2023-02-11T10:55:54;99735.72;;;4.87
22269;BMP280;11303;50.772;19.670;2023-02-11T10:58:00;99741.84;;;4.79
22269;BMP280;11303;50.772;19.670;2023-02-11T11:00:35;99733.22;;;4.78
22269;BMP280;11303;50.772;19.670;2023-02-11T11:02:37;99725.75;;;4.80
22269;BMP280;11303;50.772;19.670;2023-02-11T11:04:44;99716.88;;;4.73
22269;BMP280;11303;50.772;19.670;2023-02-11T11:06:46;99716.66;;;4.54
22269;BMP280;11303;50.772;19.670;2023-02-11T11:08:49;99720.28;;;4.49
22269;BMP280;11303;50.772;19.670;2023-02-11T11:11:04;99701.22;;;4.52
22269;BMP280;11303;50.772;19.670;2023-02-11T11:13:22;99725.19;;;4.51
22269;BMP280;11303;50.772;19.670;2023-02-11T11:15:26;99718.44;;;4.50
22269;BMP280;11303;50.772;19.670;2023-02-11T11:17:29;99701.91;;;4.49
22269;BMP280;11303;50.772;19.670;2023-02-11T11:19:30;99713.50;;;4.48
22269;BMP280;11303;50.772;19.670;2023-02-11T11:21:45;99722.34;;;4.56
22269;BMP280;11303;50.772;19.670;2023-02-11T11:23:56;99714.78;;;4.42
22269;BMP280;11303;50.772;19.670;2023-02-11T11:26:07;99717.84;;;4.32
22269;BMP280;11303;50.772;19.670;2023-02-11T11:28:22;99717.28;;;4.39
22269;BMP280;11303;50.772;19.670;2023-02-11T11:30:30;99698.38;;;4.45
22269;BMP280;11303;50.772;19.670;2023-02-11T11:32:33;99700.03;;;4.62
22269;BMP280;11303;50.772;19.670;2023-02-11T11:34:42;99705.06;;;4.79
22269;BMP280;11303;50.772;19.670;2023-02-11T11:36:49;99715.81;;;4.86
22269;BMP280;11303;50.772;19.670;2023-02-11T11:38:57;99717.97;;;4.72
22269;BMP280;11303;50.772;19.670;2023-02-11T11:41:32;99715.03;;;4.61
22269;BMP280;11303;50.772;19.670;2023-02-11T11:43:34;99708.91;;;4.45
22269;BMP280;11303;50.772;19.670;2023-02-11T11:45:38;99696.97;;;4.48
22269;BMP280;11303;50.772;19.670;2023-02-11T11:47:50;99678.66;;;4.51
22269;BMP280;11303;50.772;19.670;2023-02-11T11:52:32;99668.28;;;4.67
22269;BMP280;11303;50.772;19.670;2023-02-11T11:54:35;99667.72;;;4.61
22269;BMP280;11303;50.772;19.670;2023-02-11T11:57:09;99676.50;;;4.65
22269;BMP280;11303;50.772;19.670;2023-02-11T11:59:10;99672.00;;;4.54
22269;BMP280;11303;50.772;19.670;2023-02-11T12:08:34;99688.16;;;4.20
22269;BMP280;11303;50.772;19.670;2023-02-11T12:15:54;99681.56;;;4.14
22269;BMP280;11303;50.772;19.670;2023-02-11T12:21:08;99661.91;;;4.20
22269;BMP280;11303;50.772;19.670;2023-02-11T12:23:23;99665.81;;;4.14
22269;BMP280;11303;50.772;19.670;2023-02-11T12:25:30;99660.78;;;4.09
22269;BMP280;11303;50.772;19.670;2023-02-11T12:27:45;99662.72;;;4.00
22269;BMP280;11303;50.772;19.670;2023-02-11T12:32:25;99664.34;;;3.92
22269;BMP280;11303;50.772;19.670;2023-02-11T12:35:58;99664.78;;;3.94
22269;BMP280;11303;50.772;19.670;2023-02-11T12:56:22;99573.50;;;4.00
22269;BMP280;11303;50.772;19.670;2023-02-11T12:58:28;99598.09;;;3.95
22269;BMP280;11303;50.772;19.670;2023-02-11T13:01:37;99590.34;;;3.87
22269;BMP280;11303;50.772;19.670;2023-02-11T13:03:29;99591.22;;;3.79
22269;BMP280;11303;50.772;19.670;2023-02-11T13:05:43;99609.56;;;3.79
22269;BMP280;11303;50.772;19.670;2023-02-11T13:07:47;99615.66;;;3.71
22269;BMP280;11303;50.772;19.670;2023-02-11T13:09:55;99607.78;;;3.71
22269;BMP280;11303;50.772;19.670;2023-02-11T13:12:01;99629.22;;;3.73